Date,TemperatureHighF,TemperatureAvgF,TemperatureLowF,DewpointHighF,DewpointAvgF,DewpointLowF,HumidityHigh,HumidityAvg,HumidityLow,PressureMaxIn,PressureMinIn,WindSpeedMaxMPH,WindSpeedAvgMPH,GustSpeedMaxMPH,PrecipitationSumIn
2013-1-1,31.6,19.7,4.1,28.0,14.7,2.0,94,81,65,30.01,29.78,10,3,16,0.00
2013-1-2,21.1,9.9,-7.8,19.0,5.8,-13.0,93,83,67,30.28,29.96,7,1,12,0.00
2013-1-3,22.9,7.6,-11.2,22.0,3.7,-15.0,94,84,71,30.27,29.99,2,0,9,0.00
2013-1-4,31.5,28.5,22.6,26.0,22.7,21.0,94,79,69,29.98,29.87,12,4,19,0.00
2013-1-5,33.0,29.4,26.6,25.0,21.9,18.0,85,74,59,30.27,29.94,11,3,18,0.03
2013-1-6,34.4,30.6,26.2,32.0,27.4,21.0,96,87,75,30.13,29.91,8,1,13,0.05
2013-1-7,32.2,22.8,12.7,31.0,20.1,11.0,97,89,84,30.40,30.00,10,1,13,0.02
2013-1-8,37.1,21.6,11.9,26.0,17.6,10.0,94,85,61,30.39,30.25,3,0,6,0.15
2013-1-9,43.7,30.6,13.8,34.0,24.6,12.0,93,79,67,30.37,29.98,11,2,26,0.21
2013-1-10,37.3,31.5,18.1,30.0,24.9,15.0,93,77,66,30.56,30.21,14,2,27,0.01
2013-1-11,33.5,29.3,17.6,33.0,26.0,16.0,96,87,73,30.52,30.07,11,3,15,0.04
2013-1-12,46.0,37.9,33.5,42.0,36.7,33.0,98,95,85,30.12,30.06,6,1,8,0.01
2013-1-13,51.1,41.1,35.8,48.0,40.1,35.0,98,96,84,30.08,29.87,9,2,13,0.00
2013-1-14,43.1,36.3,29.5,43.0,31.9,22.0,98,84,70,30.34,29.82,11,3,15,0.02
2013-1-15,31.0,28.7,26.2,25.0,23.6,22.0,91,81,70,30.37,30.22,5,1,8,0.00
2013-1-16,31.2,28.1,26.2,29.0,25.5,22.0,93,89,79,30.21,29.81,6,1,9,0.00
2013-1-17,33.4,25.6,17.3,28.0,17.2,5.0,89,71,55,30.18,29.84,8,2,17,0.00
2013-1-18,23.1,14.8,4.9,12.0,5.0,-5.0,78,65,47,30.44,30.15,6,1,9,0.00
2013-1-19,44.5,35.8,23.4,27.0,20.5,12.0,65,54,48,30.21,29.69,10,2,16,0.02
2013-1-20,44.2,31.1,15.5,35.0,22.2,13.0,94,72,51,30.02,29.44,16,5,26,0.06
2013-1-21,19.1,15.2,11.7,17.0,12.2,9.0,92,87,81,30.05,29.83,6,0,7,0.02
2013-1-22,13.6,9.4,2.9,11.0,5.0,-3.0,90,82,71,30.16,29.81,12,2,15,0.00
2013-1-23,5.5,-2.9,-11.9,-3.0,-9.2,-17.0,83,75,62,30.27,30.15,4,0,8,0.00
2013-1-24,8.3,-0.9,-12.5,3.0,-6.8,-17.0,86,76,57,30.48,30.20,9,2,17,0.00
2013-1-25,12.0,5.6,-1.4,6.0,-1.0,-7.0,87,74,59,30.49,30.12,4,0,11,0.00
2013-1-26,14.6,5.4,-8.4,8.0,0.4,-12.0,89,80,60,30.40,30.12,6,1,9,0.00
2013-1-27,18.2,10.1,-5.3,9.0,3.2,-9.0,89,75,54,30.59,30.40,5,0,6,0.02
2013-1-28,28.8,21.7,16.4,28.0,17.7,9.0,96,84,69,30.49,29.94,10,2,13,0.00
2013-1-29,37.2,32.8,29.4,37.0,31.9,28.0,98,96,94,30.12,29.92,9,2,14,0.36
2013-1-30,57.7,48.1,37.3,55.0,46.4,36.0,98,93,85,29.91,29.19,16,6,20,0.38
2013-1-31,52.4,33.4,22.4,51.0,27.9,14.0,96,80,64,29.62,28.94,15,5,25,0.34
2013-2-1,22.2,17.3,10.1,16.0,12.3,6.0,92,81,66,30.19,29.62,11,4,18,0.00
2013-2-2,20.2,13.4,4.4,12.0,8.6,2.0,91,81,67,30.20,30.03,7,1,12,0.00
2013-2-3,24.9,15.0,0.4,19.0,10.1,-3.0,92,81,61,30.03,29.79,9,1,12,0.01
2013-2-4,18.8,15.6,4.5,17.0,12.6,1.0,100,87,71,29.96,29.81,7,1,14,0.00
2013-2-5,22.5,14.9,5.1,13.0,8.7,3.0,91,77,57,30.03,29.89,4,0,5,0.03
2013-2-6,25.7,19.9,9.9,24.0,12.6,4.0,93,74,42,30.39,29.90,11,2,24,0.00
2013-2-7,23.2,15.4,6.2,10.0,4.9,-2.0,84,64,50,30.54,30.30,14,3,21,0.00
2013-2-8,28.8,24.4,20.3,25.0,19.7,11.0,100,82,64,30.30,29.84,12,3,16,0.00
2013-2-9,21.9,14.1,7.1,20.0,7.4,1.0,93,76,51,30.43,29.92,11,2,18,0.06
2013-2-10,29.0,15.1,-1.1,16.0,6.1,-4.0,90,70,47,30.52,30.19,9,1,15,0.13
2013-2-11,43.6,31.9,22.9,38.0,26.3,6.0,100,81,47,30.18,29.63,9,2,16,0.16
2013-2-12,32.5,30.7,28.4,30.0,28.1,25.0,95,90,82,29.93,29.69,14,3,16,0.01
2013-2-13,35.9,28.0,17.9,26.0,21.5,14.0,90,78,53,29.89,29.73,5,0,8,0.07
2013-2-14,35.3,27.5,17.3,30.0,22.9,15.0,93,83,67,29.96,29.77,4,0,9,0.01
2013-2-15,39.2,34.2,26.9,33.0,28.5,23.0,95,80,60,30.00,29.82,9,1,13,0.12
2013-2-16,27.1,22.8,16.4,24.0,13.5,6.0,87,68,45,30.02,29.90,8,2,15,0.00
2013-2-17,19.4,11.3,6.0,6.0,2.6,-1.0,86,68,53,30.07,29.82,13,3,20,0.00
2013-2-18,22.5,12.1,0.7,11.0,3.2,-5.0,81,68,51,30.29,30.07,7,2,15,0.00
2013-2-19,31.6,24.8,14.6,31.0,19.5,7.0,100,81,62,30.12,29.65,10,2,14,0.00
2013-2-20,25.7,21.2,18.3,24.0,17.0,12.0,98,84,65,29.93,29.72,16,4,23,0.00
2013-2-21,18.0,13.5,8.4,16.0,10.6,5.0,93,88,81,30.45,29.92,12,3,14,0.00
2013-2-22,31.4,21.8,6.0,24.0,16.5,4.0,92,81,68,30.46,30.18,15,3,17,0.10
2013-2-23,33.8,31.9,28.5,33.0,28.9,22.0,97,89,72,30.17,29.85,7,2,11,0.15
2013-2-24,32.8,29.5,27.3,32.0,27.7,25.0,97,93,80,30.00,29.82,8,2,10,0.13
2013-2-25,36.3,29.9,21.4,31.0,27.1,19.0,97,89,77,30.25,30.00,6,1,10,0.14
2013-2-26,40.4,31.1,18.9,31.0,25.6,17.0,94,81,65,30.28,29.95,17,3,20,0.05
2013-2-27,40.4,34.9,30.6,36.0,32.7,29.0,96,91,81,29.97,29.54,14,5,23,0.71
2013-2-28,37.6,33.3,31.4,33.0,31.8,31.0,97,94,81,29.65,29.54,5,0,7,0.17
2013-3-1,34.8,30.6,26.2,31.0,27.7,22.0,98,89,77,29.85,29.65,7,2,14,0.01
2013-3-2,26.8,23.1,18.2,23.0,19.2,15.0,90,85,79,29.86,29.81,7,2,11,0.00
2013-3-3,26.5,20.7,16.7,20.0,17.1,14.0,92,86,74,29.84,29.78,8,2,14,0.01
2013-3-4,25.4,23.2,20.6,24.0,20.9,19.0,94,90,82,29.97,29.82,9,3,16,0.00
2013-3-5,36.2,27.0,22.3,26.0,22.1,19.0,94,82,65,30.10,29.98,4,1,7,0.01
2013-3-6,39.3,31.4,20.9,30.0,24.8,19.0,95,77,64,30.14,30.02,14,3,22,0.00
2013-3-7,36.6,31.9,26.2,27.0,23.9,21.0,92,73,59,30.20,30.12,8,2,12,0.00
2013-3-8,38.8,30.0,24.9,27.0,23.9,21.0,94,79,58,30.36,30.16,6,2,13,0.19
2013-3-9,45.3,30.6,17.8,27.0,22.7,16.0,93,74,48,30.39,30.31,5,1,10,0.00
2013-3-10,51.2,39.1,23.3,28.0,24.7,19.0,88,59,34,30.32,30.11,8,2,12,0.00
2013-3-11,48.0,41.6,38.2,40.0,32.2,27.0,75,69,61,30.17,29.85,15,4,25,0.00
2013-3-12,48.3,40.3,32.5,45.0,37.8,31.0,97,91,76,29.88,29.76,12,3,17,0.63
2013-3-13,39.2,31.7,24.4,31.0,27.3,21.0,95,85,58,29.89,29.80,7,2,13,0.00
2013-3-14,24.9,21.0,14.9,22.0,15.1,10.0,91,79,55,29.98,29.85,11,6,18,0.02
2013-3-15,33.1,24.3,9.0,31.0,19.8,5.0,94,83,67,30.00,29.67,9,2,12,0.03
2013-3-16,28.9,21.6,9.7,21.0,12.8,6.0,88,70,45,29.96,29.83,6,1,13,0.02
2013-3-17,30.3,19.7,8.0,14.0,9.6,4.0,91,67,47,30.36,29.96,13,2,19,0.00
2013-3-18,31.0,20.0,5.7,24.0,10.1,2.0,93,68,41,30.43,29.96,18,6,26,0.00
2013-3-19,32.7,28.0,23.1,30.0,25.8,20.0,95,91,87,29.95,29.69,17,6,25,0.09
2013-3-20,32.2,24.9,18.6,24.0,19.7,16.0,91,81,58,29.81,29.77,9,3,19,0.04
2013-3-21,31.5,23.0,7.6,18.0,13.1,5.0,93,68,44,29.81,29.70,8,2,13,0.00
2013-3-22,28.4,25.0,21.5,26.0,22.1,16.0,95,89,73,29.85,29.68,11,3,16,0.06
2013-3-23,34.6,29.2,25.2,26.0,23.5,20.0,95,80,59,29.94,29.82,15,5,18,0.06
2013-3-24,38.8,31.8,24.2,23.0,22.2,19.0,86,69,50,29.93,29.76,8,2,14,0.00
2013-3-25,41.9,33.2,24.0,28.0,23.3,20.0,85,68,49,29.76,29.56,6,1,11,0.00
2013-3-26,43.0,35.6,29.1,29.0,24.6,20.0,86,66,42,29.89,29.64,8,1,13,0.00
2013-3-27,44.3,35.9,30.0,33.0,28.4,25.0,88,75,56,29.99,29.86,11,3,14,0.00
2013-3-28,43.5,36.7,31.7,34.0,31.9,30.0,96,83,64,30.15,29.98,8,2,13,0.00
2013-3-29,41.7,36.7,32.5,34.0,30.7,27.0,88,79,66,30.16,30.09,6,2,11,0.00
2013-3-30,49.4,37.0,26.6,32.0,26.3,21.0,93,69,35,30.18,30.09,7,1,13,0.00
2013-3-31,51.7,38.6,24.2,39.0,29.3,21.0,92,71,42,30.10,29.68,13,4,24,0.07
2013-4-1,40.8,34.9,26.7,39.0,28.8,16.0,96,80,46,29.88,29.57,17,4,23,0.22
2013-4-2,29.1,24.7,20.8,24.0,22.0,19.0,94,89,69,30.03,29.87,14,4,19,0.11
2013-4-3,31.6,26.7,20.6,22.0,17.3,13.0,91,69,48,30.32,30.03,12,4,19,0.02
2013-4-4,51.6,34.9,19.6,29.0,21.5,16.0,89,62,32,30.35,29.94,6,1,13,0.00
2013-4-5,42.9,36.1,26.4,30.0,24.7,17.0,92,65,41,30.04,29.86,12,3,18,0.00
2013-4-6,42.5,31.8,22.1,23.0,13.7,10.0,83,50,28,30.32,30.05,9,2,13,0.01
2013-4-7,61.9,47.1,32.3,42.0,31.1,15.0,85,56,36,30.20,29.78,16,5,28,0.06
2013-4-8,55.9,45.6,37.9,41.0,35.9,33.0,84,70,51,30.13,29.85,9,2,14,0.02
2013-4-9,54.0,47.8,42.3,47.0,42.8,40.0,95,83,65,30.08,29.77,11,3,19,0.11
2013-4-10,51.6,46.7,42.7,49.0,45.0,41.0,97,94,85,30.01,29.82,7,1,11,0.72
2013-4-11,42.7,37.1,32.7,41.0,34.3,29.0,95,90,83,30.10,29.90,6,2,11,0.12
2013-4-12,36.6,34.9,32.4,36.0,33.2,30.0,97,93,88,30.05,29.70,15,4,22,0.81
2013-4-13,46.8,39.4,36.2,40.0,37.0,35.0,97,91,76,29.94,29.78,4,0,13,0.05
2013-4-14,44.7,37.6,33.7,35.0,31.2,24.0,94,79,58,30.22,29.92,9,2,13,0.00
2013-4-15,59.5,44.3,26.5,42.0,33.4,24.0,90,68,50,30.30,30.15,13,4,16,0.00
2013-4-16,59.2,53.4,44.1,54.0,46.7,40.0,95,79,61,30.20,29.95,16,6,25,0.34
2013-4-17,57.5,45.2,32.6,42.0,34.7,31.0,95,70,37,30.31,30.16,11,2,16,0.00
2013-4-18,66.6,52.7,36.8,52.0,40.7,31.0,84,65,52,30.29,29.91,15,7,24,0.00
2013-4-19,71.1,59.8,40.0,60.0,52.7,38.0,94,78,65,29.91,29.42,21,8,27,0.49
2013-4-20,43.7,38.2,29.7,39.0,29.8,20.0,94,72,52,30.36,29.70,13,5,23,0.02
2013-4-21,47.3,34.6,23.2,24.0,20.2,16.0,86,59,30,30.64,30.36,12,2,18,0.00
2013-4-22,54.5,41.3,25.4,30.0,24.7,20.0,86,55,30,30.66,30.44,15,5,21,0.00
2013-4-23,54.4,44.0,32.7,41.0,33.4,26.0,81,67,50,30.45,30.09,17,6,22,0.00
2013-4-24,70.1,52.6,37.4,56.0,44.6,35.0,94,76,49,30.08,29.65,12,4,22,0.42
2013-4-25,53.7,42.4,35.8,39.0,31.1,24.0,93,67,35,30.27,29.88,12,3,22,0.01
2013-4-26,51.3,41.5,31.7,38.0,33.1,28.0,95,74,47,30.46,30.26,6,1,10,0.05
2013-4-27,62.3,44.1,26.0,41.0,32.6,24.0,94,69,34,30.46,30.28,8,1,15,0.01
2013-4-28,71.2,56.0,35.5,43.0,38.3,33.0,93,57,29,30.28,30.05,11,2,15,0.00
2013-4-29,61.0,51.5,47.4,50.0,46.1,37.0,92,83,42,30.15,30.09,12,4,19,0.44
2013-4-30,68.5,56.2,48.0,54.0,48.9,44.0,93,78,57,30.25,30.14,11,2,14,0.02
2013-5-1,73.4,58.5,39.2,45.0,40.1,34.0,95,56,26,30.40,30.25,11,2,16,0.00
2013-5-2,79.1,61.3,40.3,48.0,40.7,36.0,86,51,25,30.43,30.25,5,1,12,0.00
2013-5-3,68.9,60.7,50.5,46.0,38.9,33.0,57,45,27,30.37,30.26,17,6,19,0.00
2013-5-4,74.9,60.0,42.8,53.0,42.4,34.0,76,54,36,30.30,30.14,9,1,11,0.00
2013-5-5,75.8,62.1,49.0,54.0,43.0,30.0,81,52,28,30.22,30.08,8,1,13,0.00
2013-5-6,76.6,62.0,47.2,50.0,39.3,31.0,70,45,26,30.19,30.02,5,1,11,0.00
2013-5-7,79.3,66.1,50.8,59.0,49.5,41.0,90,58,26,30.11,29.98,5,0,11,0.00
2013-5-8,69.0,61.2,53.3,61.0,55.7,46.0,96,83,58,30.07,29.92,6,1,15,0.06
2013-5-9,69.5,60.0,53.1,60.0,54.9,52.0,97,84,58,29.93,29.85,5,0,11,0.08
2013-5-10,72.3,61.4,50.8,62.0,55.5,50.0,98,82,58,29.97,29.79,7,1,14,0.22
2013-5-11,61.7,55.9,49.0,60.0,53.7,47.0,96,92,84,29.77,29.63,8,2,14,0.29
2013-5-12,54.7,46.1,34.7,47.0,39.6,33.0,96,80,51,29.87,29.66,7,1,21,0.01
2013-5-13,48.8,39.0,33.3,36.0,31.1,27.0,95,75,46,30.09,29.87,9,2,14,0.77
2013-5-14,54.8,41.2,27.8,36.0,30.4,26.0,96,69,38,30.15,30.02,6,1,12,0.01
2013-5-15,63.4,47.9,29.8,55.0,39.6,27.0,89,74,56,30.02,29.57,12,3,18,0.08
2013-5-16,72.8,59.6,43.2,50.0,42.2,36.0,86,56,31,29.90,29.69,13,2,16,0.00
2013-5-17,66.9,53.9,40.9,48.0,40.9,36.0,91,64,35,30.22,29.91,8,1,12,0.00
2013-5-18,70.9,55.6,34.3,49.0,42.5,33.0,97,66,36,30.28,30.17,9,1,13,0.00
2013-5-19,59.4,55.7,47.8,56.0,51.4,44.0,91,85,71,30.22,30.09,9,2,13,0.00
2013-5-20,82.3,66.9,56.1,67.0,60.3,54.0,93,81,54,30.09,29.88,8,1,9,0.00
2013-5-21,85.0,70.3,60.4,70.0,64.5,59.0,98,83,58,29.90,29.71,5,1,18,0.52
2013-5-22,82.5,70.3,59.9,70.0,65.3,59.0,98,85,59,29.80,29.68,11,1,28,0.01
2013-5-23,75.0,67.0,60.1,66.0,61.6,59.0,97,83,68,29.75,29.67,11,2,18,0.28
2013-5-24,60.1,44.8,41.0,59.0,43.1,39.0,98,94,84,30.08,29.68,8,1,13,0.48
2013-5-25,46.3,42.7,40.4,42.0,39.9,38.0,97,90,77,30.09,30.03,12,1,24,0.30
2013-5-26,58.4,48.0,41.5,42.0,39.3,37.0,89,73,47,30.14,29.98,9,1,14,0.00
2013-5-27,66.9,51.9,38.7,46.0,38.8,32.0,91,65,28,30.23,30.14,4,0,10,0.00
2013-5-28,65.7,53.8,35.6,54.0,45.1,33.0,93,74,49,30.18,30.03,6,2,11,0.02
2013-5-29,78.2,63.9,55.0,71.0,61.1,54.0,98,91,71,30.03,29.89,8,1,13,0.97
2013-5-30,84.0,69.4,54.8,72.0,64.1,54.0,99,85,62,30.09,30.00,4,0,8,0.00
2013-5-31,90.8,74.8,58.0,72.0,65.5,57.0,99,76,47,30.07,29.89,6,0,7,0.00
2013-6-1,86.4,74.8,60.1,74.0,66.2,59.0,97,76,55,29.92,29.75,9,1,15,0.04
2013-6-2,79.0,70.4,60.7,71.0,65.4,58.0,96,85,65,29.79,29.65,9,1,16,0.14
2013-6-3,63.1,55.5,45.3,58.0,47.8,40.0,88,76,51,29.95,29.79,5,0,9,0.01
2013-6-4,66.0,52.7,39.7,49.0,43.4,38.0,95,73,46,30.14,29.94,7,1,11,0.00
2013-6-5,71.6,57.3,39.1,53.0,45.4,38.0,97,68,36,30.20,30.09,6,0,9,0.00
2013-6-6,60.5,56.1,49.4,57.0,51.3,45.0,96,84,66,30.09,29.92,10,1,16,0.83
2013-6-7,56.8,55.4,54.0,55.0,53.9,52.0,97,94,92,29.91,29.78,11,3,17,0.33
2013-6-8,63.6,58.1,54.2,60.0,56.3,53.0,98,93,87,30.05,29.74,5,0,9,0.02
2013-6-9,75.1,61.5,50.3,62.0,55.7,50.0,99,83,55,30.16,30.04,2,0,8,0.00
2013-6-10,65.9,58.7,49.8,60.0,56.2,48.0,97,92,72,30.16,29.79,17,4,23,0.86
2013-6-11,64.5,59.7,55.0,63.0,58.3,54.0,97,95,92,29.79,29.58,10,2,15,0.54
2013-6-12,73.9,60.6,51.8,59.0,54.7,50.0,98,82,55,29.87,29.70,5,1,12,0.01
2013-6-13,57.9,55.2,49.9,56.0,53.7,49.0,97,95,91,29.80,29.60,11,2,19,1.33
2013-6-14,73.9,61.2,49.4,63.0,56.0,49.0,99,84,58,29.89,29.71,6,0,16,0.00
2013-6-15,73.1,60.3,48.6,58.0,51.2,44.0,98,75,41,29.99,29.90,4,0,10,0.00
2013-6-16,68.4,58.2,47.6,63.0,54.9,45.0,98,89,63,29.95,29.68,6,1,14,0.39
2013-6-17,76.1,64.9,55.6,67.0,60.7,54.0,99,87,62,29.90,29.79,5,0,15,0.66
2013-6-18,71.5,59.1,53.1,58.0,53.7,47.0,98,83,49,29.98,29.86,7,0,10,0.12
2013-6-19,70.2,57.2,42.5,51.0,46.3,41.0,96,70,42,30.18,29.97,9,1,16,0.00
2013-6-20,77.4,59.1,39.8,57.0,49.3,39.0,98,73,44,30.25,30.17,6,0,9,0.00
2013-6-21,84.0,64.0,44.7,60.0,51.4,43.0,96,68,34,30.27,30.17,3,0,8,0.00
2013-6-22,83.0,71.2,55.2,70.0,62.3,52.0,92,75,52,30.18,30.01,8,1,10,0.00
2013-6-23,87.9,75.5,65.5,76.0,68.8,64.0,97,80,61,30.05,29.94,9,1,12,0.04
2013-6-24,87.9,70.5,62.6,75.0,66.7,62.0,99,89,61,30.00,29.90,4,0,12,0.13
2013-6-25,81.6,69.3,59.3,74.0,66.5,59.0,98,91,73,29.94,29.76,4,0,15,1.57
2013-6-26,82.2,71.1,63.0,73.0,67.8,62.0,99,90,66,29.79,29.74,3,0,10,0.80
2013-6-27,82.4,70.2,59.2,72.0,65.2,58.0,99,85,52,29.78,29.57,13,0,16,0.33
2013-6-28,75.1,67.2,62.0,68.0,64.6,60.0,98,91,74,29.57,29.41,8,1,17,1.09
2013-6-29,72.8,65.2,59.8,69.0,63.2,59.0,98,93,74,29.66,29.47,10,1,17,0.51
2013-6-30,84.2,70.2,57.0,72.0,64.9,57.0,99,85,58,29.88,29.67,6,0,15,0.10
2013-7-1,72.6,68.5,65.9,71.0,67.4,65.0,98,96,91,29.97,29.87,8,1,10,0.91
2013-7-2,80.3,71.8,66.0,74.0,69.8,66.0,99,93,77,30.07,29.96,7,0,12,0.43
2013-7-3,86.9,76.1,68.6,75.0,71.2,68.0,99,86,65,30.14,30.06,4,0,10,0.00
2013-7-4,85.2,76.2,69.4,76.0,71.8,68.0,97,87,70,30.15,30.07,8,1,14,0.12
2013-7-5,85.6,73.7,67.6,76.0,71.4,67.0,99,93,69,30.12,30.02,5,0,17,1.08
2013-7-6,83.3,73.6,66.1,73.0,69.5,64.0,99,88,62,30.10,30.00,2,0,6,0.01
2013-7-7,86.6,74.9,65.8,76.0,70.2,64.0,98,86,64,30.04,29.88,15,0,27,1.86
2013-7-8,82.3,72.3,67.1,74.0,69.3,67.0,99,90,72,30.01,29.92,3,0,8,0.01
2013-7-9,84.7,74.0,63.4,73.0,68.0,63.0,99,83,56,30.04,29.91,7,1,9,0.00
2013-7-10,81.4,74.9,68.3,74.0,70.7,67.0,96,87,77,29.92,29.69,8,2,15,0.16
2013-7-11,78.5,69.6,59.7,67.0,64.2,57.0,96,84,61,29.99,29.74,4,0,10,0.01
2013-7-12,80.3,67.4,55.3,68.0,60.1,54.0,97,79,53,30.15,29.99,3,0,7,0.00
2013-7-13,78.0,69.3,60.8,70.0,64.7,59.0,96,85,73,30.25,30.15,10,2,15,0.00
2013-7-14,88.6,76.5,65.2,74.0,69.8,64.0,98,81,56,30.29,30.20,4,0,9,0.00
2013-7-15,88.1,76.1,67.3,75.0,69.1,66.0,97,80,56,30.24,30.16,6,0,9,0.00
2013-7-16,89.5,76.2,62.6,76.0,69.1,62.0,98,80,56,30.23,30.14,1,0,10,0.00
2013-7-17,91.3,77.9,62.9,78.0,71.3,62.0,99,81,58,30.20,30.00,4,0,8,0.00
2013-7-18,90.0,79.8,71.9,79.0,74.3,70.0,98,84,61,30.03,29.91,1,0,7,0.00
2013-7-19,91.5,79.7,68.3,78.0,72.1,66.0,97,79,56,29.91,29.67,6,1,23,0.39
2013-7-20,78.6,69.8,61.4,73.0,66.5,60.0,97,89,75,29.84,29.69,7,0,13,0.14
2013-7-21,78.8,68.1,57.6,68.0,61.4,57.0,98,81,55,29.97,29.84,2,0,7,0.01
2013-7-22,82.5,68.9,57.7,72.0,64.3,56.0,96,86,67,29.97,29.77,5,1,11,0.04
2013-7-23,82.3,70.7,65.9,73.0,67.9,65.0,98,91,68,29.77,29.56,3,0,8,0.49
2013-7-24,67.6,62.0,50.0,67.0,57.2,48.0,97,85,70,30.00,29.59,11,1,13,0.02
2013-7-25,75.4,58.9,43.3,59.0,51.3,43.0,98,78,51,30.11,30.03,3,0,9,0.01
2013-7-26,78.3,63.4,48.7,63.0,55.8,48.0,97,78,54,30.09,29.98,5,0,8,0.00
2013-7-27,80.3,67.8,51.4,66.0,59.6,51.0,98,78,49,30.01,29.86,10,2,13,0.35
2013-7-28,71.4,67.1,62.5,67.0,64.8,62.0,97,92,80,29.93,29.86,8,1,13,0.24
2013-7-29,73.7,62.0,53.2,64.0,57.3,52.0,99,86,61,30.10,29.94,4,0,9,0.01
2013-7-30,73.6,63.1,52.8,64.0,58.2,52.0,98,85,65,30.16,30.09,4,0,9,0.00
2013-7-31,78.5,64.6,49.8,64.0,57.4,49.0,99,80,52,30.15,29.97,3,0,8,0.00
2013-8-1,71.9,64.6,59.3,69.0,62.3,57.0,97,92,85,29.97,29.75,8,1,12,0.44
2013-8-2,76.1,65.4,57.0,64.0,60.4,56.0,99,85,56,29.87,29.80,6,0,9,0.00
2013-8-3,73.7,64.6,56.2,64.0,58.5,54.0,98,82,52,29.88,29.77,3,0,8,0.10
2013-8-4,71.3,62.3,53.6,63.0,56.2,52.0,97,82,59,29.98,29.85,6,1,10,0.02
2013-8-5,73.7,59.2,44.5,57.0,50.7,44.0,98,76,41,30.07,29.98,4,0,10,0.01
2013-8-6,75.6,62.2,45.0,59.0,52.6,44.0,98,73,49,30.08,30.04,7,1,11,0.00
2013-8-7,71.9,67.7,59.7,65.0,61.8,57.0,90,81,68,30.06,29.94,7,2,12,0.00
2013-8-8,82.9,73.6,64.8,72.0,67.9,63.0,97,83,65,29.98,29.89,10,1,10,0.00
2013-8-9,77.7,71.2,63.8,73.0,68.6,63.0,96,91,83,29.89,29.77,3,0,7,0.04
2013-8-10,72.4,63.9,51.0,63.0,55.8,49.0,97,78,49,30.07,29.86,7,0,7,0.01
2013-8-11,75.1,60.6,45.3,59.0,53.4,45.0,98,80,54,30.11,30.02,0,0,7,0.00
2013-8-12,77.7,64.4,49.9,63.0,57.5,49.0,98,80,51,30.04,29.86,4,0,9,0.00
2013-8-13,71.3,63.6,56.1,68.0,61.1,52.0,97,91,80,29.86,29.66,5,0,9,0.73
2013-8-14,67.0,57.9,52.1,58.0,53.6,51.0,97,86,68,30.01,29.76,5,0,9,0.04
2013-8-15,71.0,57.4,46.5,58.0,52.2,46.0,98,84,58,30.12,30.02,4,0,10,0.01
2013-8-16,75.2,59.6,45.1,60.0,52.2,44.0,99,80,46,30.20,30.11,4,0,6,0.00
2013-8-17,79.6,62.1,46.2,62.0,54.5,45.0,98,79,48,30.29,30.21,4,0,6,0.01
2013-8-18,77.7,63.8,53.3,66.0,58.5,52.0,97,85,55,30.25,30.09,5,0,6,0.00
2013-8-19,79.3,65.1,53.4,66.0,59.1,53.0,99,83,51,30.10,29.99,3,0,9,0.00
2013-8-20,81.0,64.9,49.9,69.0,59.0,49.0,99,83,55,30.11,30.03,5,0,9,0.00
2013-8-21,84.6,68.3,52.5,69.0,61.5,52.0,99,81,51,30.15,30.00,2,0,6,0.01
2013-8-22,84.0,69.3,55.8,71.0,64.8,55.0,98,87,61,30.01,29.83,0,0,10,0.16
2013-8-23,74.9,63.3,52.4,66.0,57.4,50.0,98,82,58,30.17,29.91,9,1,12,0.01
2013-8-24,77.3,59.3,43.6,59.0,51.6,43.0,98,78,47,30.34,30.18,3,0,9,0.00
2013-8-25,80.4,64.2,47.7,63.0,55.7,47.0,98,76,45,30.36,30.12,3,0,8,0.01
2013-8-26,72.9,67.3,62.1,68.0,65.0,59.0,98,92,78,30.14,29.88,3,0,6,0.22
2013-8-27,79.7,69.7,62.9,71.0,66.7,62.0,99,90,72,29.93,29.85,2,0,6,0.04
2013-8-28,87.4,72.6,62.0,72.0,66.9,61.0,99,84,53,29.89,29.80,0,0,0,0.01
2013-8-29,82.7,67.6,59.2,71.0,64.5,58.0,99,90,63,30.00,29.89,3,0,12,0.22
2013-8-30,82.4,69.9,59.3,73.0,66.5,59.0,99,90,65,29.98,29.77,3,0,6,0.10
2013-8-31,78.4,69.7,66.1,75.0,68.5,65.0,98,95,86,29.81,29.70,5,0,7,0.14
2013-9-1,79.9,72.9,66.8,72.0,68.7,66.0,99,87,71,29.83,29.74,5,0,9,0.00
2013-9-2,80.7,68.7,61.4,72.0,66.2,61.0,98,92,73,29.80,29.61,6,1,13,1.05
2013-9-3,68.6,62.0,58.0,63.0,59.4,57.0,99,91,70,29.87,29.72,4,0,10,0.07
2013-9-4,75.1,64.8,56.4,61.0,58.1,55.0,98,81,51,29.95,29.87,6,0,11,0.05
2013-9-5,66.6,57.9,42.0,61.0,49.4,40.0,97,76,42,30.19,29.88,7,0,14,0.00
2013-9-6,66.0,52.6,39.2,53.0,45.8,38.0,97,79,54,30.28,30.10,7,0,8,0.01
2013-9-7,65.6,57.1,47.8,60.0,54.0,46.0,97,90,69,30.10,29.86,1,0,5,0.04
2013-9-8,63.1,57.4,45.5,59.0,50.6,42.0,98,80,51,30.11,29.81,14,3,20,0.01
2013-9-9,70.8,56.0,39.9,57.0,48.7,39.0,97,78,52,30.20,30.02,7,1,11,0.00
2013-9-10,84.5,61.2,61.0,76.0,43.1,-99.9,98,74,72,30.04,29.93,7,-145,11,0.04
2013-9-11,89.5,77.1,66.7,81.0,73.0,66.0,98,87,66,30.02,29.89,10,0,17,0.16
2013-9-12,78.1,68.1,62.9,72.0,66.2,62.0,98,94,74,29.88,29.66,3,0,10,0.29
2013-9-13,62.8,55.3,48.0,62.0,52.8,45.0,97,91,81,29.93,29.64,8,1,14,0.01
2013-9-14,59.5,49.9,40.7,52.0,45.3,39.0,95,85,65,30.13,29.93,5,0,8,0.00
2013-9-15,65.7,50.7,37.0,55.0,46.8,36.0,98,87,64,30.18,30.05,6,0,8,0.00
2013-9-16,57.4,50.5,37.6,52.0,47.6,36.0,98,90,69,30.35,30.05,7,0,12,0.05
2013-9-17,62.6,46.4,31.5,51.0,41.0,31.0,97,83,57,30.49,30.33,4,0,7,0.01
2013-9-18,71.0,54.0,39.5,56.0,47.4,38.0,98,80,50,30.33,30.13,4,0,7,0.00
2013-9-19,75.1,58.3,44.6,61.0,51.8,43.0,96,81,53,30.15,30.03,4,0,5,0.00
2013-9-20,77.7,63.1,49.0,65.0,56.2,47.0,97,80,53,30.04,29.88,7,1,12,0.00
2013-9-21,72.9,63.4,56.2,62.0,58.2,54.0,97,84,67,29.89,29.58,14,2,17,0.82
2013-9-22,57.5,51.5,44.9,57.0,47.9,42.0,97,87,69,29.96,29.61,6,1,12,0.04
2013-9-23,55.6,46.1,37.8,45.0,40.9,36.0,95,83,64,30.11,29.96,11,2,16,0.00
2013-9-24,61.8,46.5,33.4,50.0,41.9,32.0,98,85,62,30.10,29.96,5,0,10,0.00
2013-9-25,69.3,49.9,33.5,55.0,44.7,33.0,98,84,54,30.00,29.91,3,0,7,0.01
2013-9-26,68.6,52.6,38.9,55.0,48.2,38.0,98,86,60,30.13,29.98,5,0,8,0.00
2013-9-27,64.0,51.5,38.5,54.0,46.7,38.0,98,84,67,30.26,30.14,5,0,9,0.01
2013-9-28,70.2,57.9,39.7,55.0,49.1,39.0,98,75,50,30.35,30.22,8,1,11,0.00
2013-9-29,71.5,55.3,41.5,55.0,48.5,41.0,97,81,49,30.22,30.04,8,1,13,0.01
2013-9-30,73.5,55.7,43.3,56.0,48.9,42.0,98,81,45,30.06,29.95,4,0,7,0.00
2013-10-1,72.8,56.6,44.6,62.0,52.3,43.0,98,86,61,30.01,29.91,5,0,6,0.00
2013-10-2,73.2,58.7,46.3,66.0,55.1,45.0,98,89,65,30.04,29.91,5,0,7,0.01
2013-10-3,69.5,53.7,41.4,56.0,48.7,41.0,98,85,54,30.15,30.03,4,0,6,0.01
2013-10-4,60.0,56.2,49.9,59.0,54.5,48.0,97,94,85,30.05,30.00,6,1,7,0.59
2013-10-5,60.6,58.4,56.3,60.0,57.1,55.0,97,95,91,30.09,30.04,3,0,7,0.01
2013-10-6,62.6,57.1,53.8,60.0,55.4,52.0,97,94,90,30.05,29.91,9,3,16,0.59
2013-10-7,72.9,58.9,46.8,65.0,56.3,46.0,97,91,74,29.94,29.62,13,3,20,1.34
2013-10-8,61.8,49.4,38.3,48.0,43.5,37.0,98,82,52,30.37,29.95,3,0,9,0.00
2013-10-9,62.6,47.0,35.8,45.0,38.9,35.0,96,77,38,30.45,30.33,10,1,14,0.01
2013-10-10,66.4,51.2,39.5,50.0,43.3,37.0,93,76,41,30.33,30.17,3,0,6,0.00
2013-10-11,69.7,54.4,48.0,56.0,48.5,45.0,91,81,55,30.17,30.08,1,0,3,0.00
2013-10-12,72.7,56.3,42.1,59.0,49.1,39.0,92,78,58,30.28,30.13,8,0,15,0.00
2013-10-13,68.9,57.2,45.5,58.0,51.6,44.0,97,82,67,30.35,30.25,4,0,9,0.00
2013-10-14,58.0,55.6,53.9,56.0,52.9,51.0,97,90,78,30.30,30.24,2,0,8,0.01
2013-10-15,67.9,57.2,48.4,58.0,53.4,48.0,98,88,67,30.27,30.03,2,0,9,0.00
2013-10-16,64.5,57.1,51.0,56.0,52.6,46.0,95,85,68,30.04,29.80,4,0,10,0.22
2013-10-17,62.8,55.9,49.0,56.0,51.1,48.0,100,85,64,29.87,29.63,5,0,9,0.79
2013-10-18,58.5,51.2,43.6,51.0,45.6,40.0,97,83,52,29.91,29.63,6,1,19,0.09
2013-10-19,60.6,50.5,42.3,48.0,44.2,40.0,94,80,51,29.91,29.66,6,1,15,0.21
2013-10-20,55.6,46.6,39.6,46.0,40.8,37.0,97,81,59,30.00,29.68,5,1,16,0.01
2013-10-21,63.3,53.6,44.0,45.0,41.7,39.0,87,66,47,30.05,29.82,10,1,18,0.00
2013-10-22,55.7,47.4,39.0,46.0,39.6,33.0,90,75,58,29.82,29.72,15,1,18,0.04
2013-10-23,47.6,40.5,35.0,38.0,34.8,31.0,94,81,65,29.79,29.64,3,0,8,0.03
2013-10-24,44.6,36.9,33.6,37.0,34.4,32.0,96,91,66,29.94,29.75,5,1,22,0.45
2013-10-25,45.2,38.3,34.2,37.0,34.8,33.0,97,88,65,30.15,29.95,9,1,12,0.01
2013-10-26,43.5,40.5,35.1,36.0,32.3,28.0,94,73,57,30.13,29.82,14,3,21,0.00
2013-10-27,43.3,40.1,37.2,38.0,36.1,35.0,94,85,74,30.06,29.79,11,2,14,0.11
2013-10-28,50.2,39.8,26.2,40.0,31.2,21.0,89,72,48,30.38,30.05,10,1,14,0.00
2013-10-29,42.5,32.0,20.0,29.0,22.1,17.0,91,69,46,30.48,30.34,4,0,7,0.00
2013-10-30,49.4,39.3,32.8,43.0,35.2,27.0,96,85,74,30.33,30.19,3,0,6,0.04
2013-10-31,58.6,48.3,37.0,57.0,47.1,35.0,97,95,91,30.20,29.55,8,2,16,1.03
2013-11-1,65.2,58.6,49.6,60.0,51.4,42.0,95,78,52,29.66,29.27,12,4,26,0.74
2013-11-2,54.4,45.7,36.4,47.0,41.8,34.0,94,86,72,29.87,29.61,8,1,16,0.05
2013-11-3,37.5,32.3,24.9,33.0,25.1,18.0,89,76,59,30.53,29.88,11,2,18,0.00
2013-11-4,39.1,28.6,18.5,23.0,18.8,16.0,90,69,45,30.68,30.53,11,1,13,0.00
2013-11-5,52.5,39.7,28.1,36.0,29.2,18.0,83,67,51,30.61,30.41,10,2,12,0.00
2013-11-6,58.9,50.6,39.7,49.0,43.1,35.0,90,76,61,30.41,29.86,19,4,22,0.06
2013-11-7,55.1,44.2,34.3,51.0,41.2,33.0,96,89,71,29.91,29.74,10,3,19,0.68
2013-11-8,36.0,32.4,28.3,33.0,30.3,26.0,97,92,75,30.19,29.89,8,1,15,0.30
2013-11-9,42.5,35.5,26.6,34.0,29.6,24.0,91,80,63,30.23,29.86,10,2,14,0.07
2013-11-10,43.5,38.8,35.7,39.0,35.8,30.0,95,89,77,30.04,29.77,12,3,18,0.37
2013-11-11,42.2,37.2,30.9,36.0,31.6,27.0,95,81,66,30.14,29.91,13,3,18,0.08
2013-11-12,31.8,25.5,21.3,31.0,21.4,17.0,95,84,74,30.33,29.99,10,2,13,0.00
2013-11-13,31.0,26.2,20.0,23.0,18.8,15.0,85,74,64,30.41,30.13,11,2,13,0.01
2013-11-14,46.5,33.1,22.2,29.0,21.9,17.0,85,65,39,30.14,30.06,8,1,15,0.01
2013-11-15,54.0,37.1,24.2,31.0,23.6,19.0,82,61,31,30.17,30.10,6,0,13,0.00
2013-11-16,57.5,43.7,30.9,37.0,32.1,26.0,84,65,42,30.29,30.17,9,1,14,0.00
2013-11-17,59.0,51.0,41.7,54.0,46.9,35.0,91,85,76,30.18,29.52,12,4,19,0.60
2013-11-18,60.1,48.3,35.0,56.0,39.7,29.0,92,73,54,29.76,29.41,18,6,27,0.13
2013-11-19,34.9,30.0,23.9,30.0,24.3,16.0,95,79,71,30.43,29.76,11,3,20,0.02
2013-11-20,35.5,24.7,15.3,20.0,16.5,13.0,90,72,48,30.64,30.43,4,0,13,0.00
2013-11-21,43.7,33.9,22.6,34.0,25.0,16.0,84,70,58,30.61,30.33,11,1,11,0.01
2013-11-22,44.0,39.5,35.4,43.0,38.5,33.0,98,96,85,30.32,29.91,12,1,15,0.31
2013-11-23,36.4,28.4,18.0,35.0,24.4,16.0,95,86,54,30.08,29.86,11,4,21,0.01
2013-11-24,20.8,14.4,7.7,16.0,8.3,3.0,92,77,54,30.37,30.00,11,4,15,0.00
2013-11-25,30.2,20.2,6.2,21.0,12.1,2.0,88,72,52,30.43,30.18,7,1,17,0.01
2013-11-26,32.7,29.7,26.3,32.0,26.3,15.0,96,87,55,30.24,29.86,6,2,16,0.34
2013-11-27,36.1,31.6,24.2,35.0,30.5,22.0,97,95,89,29.85,29.49,9,3,15,0.84
2013-11-28,25.7,19.9,14.0,21.0,15.0,9.0,93,81,57,30.45,29.73,9,3,17,0.02
2013-11-29,26.0,14.9,5.7,19.0,10.6,2.0,92,83,67,30.79,30.45,5,1,10,0.01
2013-11-30,24.8,15.3,-0.8,18.0,9.1,-4.0,89,77,65,30.80,30.33,8,2,16,0.00
2013-12-1,35.7,29.5,20.9,29.0,25.1,17.0,91,84,73,30.33,30.01,5,0,9,0.02
2013-12-2,36.8,33.1,30.8,33.0,30.6,29.0,94,90,85,30.01,29.88,3,0,5,0.00
2013-12-3,36.6,30.8,25.6,33.0,28.9,24.0,97,92,83,30.03,29.89,2,0,4,0.00
2013-12-4,38.1,30.4,20.4,32.0,26.7,19.0,96,86,77,30.12,30.03,8,2,14,0.01
2013-12-5,54.6,43.9,35.4,52.0,40.8,30.0,95,89,80,30.08,29.83,9,3,17,0.12
2013-12-6,41.0,33.2,29.3,39.0,31.2,27.0,97,92,84,30.19,29.96,6,2,10,0.36
2013-12-7,29.3,26.8,23.1,28.0,24.1,20.0,96,89,81,30.52,30.18,9,2,15,0.04
2013-12-8,26.2,23.3,21.6,21.0,19.4,17.0,93,85,71,30.60,30.37,9,1,15,0.00
2013-12-9,38.9,30.2,23.6,36.0,27.2,20.0,95,88,76,30.36,29.88,15,5,22,0.04
2013-12-10,33.2,25.9,19.8,26.0,19.5,14.0,90,77,66,30.01,29.87,9,3,15,0.00
2013-12-11,26.2,21.4,16.7,18.0,12.8,9.0,92,70,54,30.21,30.01,12,5,20,0.00
2013-12-12,18.1,11.4,-4.4,13.0,6.3,-8.0,92,80,64,30.34,30.03,7,1,12,0.01
2013-12-13,20.6,15.3,2.9,18.0,10.0,-3.0,92,80,70,30.44,29.98,10,4,17,0.00
2013-12-14,14.7,7.2,-0.4,12.0,3.1,-5.0,92,83,75,30.55,29.96,20,4,28,0.00
2013-12-15,22.7,20.6,15.0,21.0,18.2,13.0,93,90,81,29.93,29.64,26,4,26,0.00
2013-12-16,20.7,12.3,-2.7,16.0,8.7,-6.0,92,85,67,30.23,29.76,9,1,15,0.00
2013-12-17,13.5,6.8,-8.3,11.0,4.1,-12.0,90,88,83,30.22,30.01,10,2,14,0.00
2013-12-18,28.1,20.7,7.5,23.0,16.5,5.0,92,84,74,30.07,29.98,9,2,13,0.01
2013-12-19,38.4,32.0,25.3,30.0,24.2,19.0,88,73,59,30.08,29.95,8,1,17,0.03
2013-12-20,44.1,38.1,33.1,43.0,35.7,29.0,96,91,80,30.05,29.84,5,1,9,0.30
2013-12-21,52.4,47.0,39.1,50.0,45.5,38.0,97,94,90,29.84,29.76,7,1,16,0.56
2013-12-22,62.5,44.8,35.8,54.0,42.9,35.0,99,93,71,29.97,29.56,9,2,18,0.09
2013-12-23,39.1,34.9,25.7,38.0,33.3,20.0,97,94,79,30.22,29.96,8,2,12,0.08
2013-12-24,25.4,19.7,8.4,19.0,14.6,3.0,100,81,72,30.41,30.16,6,2,12,0.00
2013-12-25,18.1,10.6,1.0,12.0,4.6,-3.0,92,77,65,30.57,30.33,7,1,11,0.00
2013-12-26,27.4,21.9,17.9,24.0,19.1,12.0,94,89,72,30.33,30.11,5,0,8,0.00
2013-12-27,28.9,23.5,14.7,26.0,20.1,12.0,91,87,80,30.29,30.18,7,1,12,0.00
2013-12-28,37.0,27.6,19.0,32.0,24.6,17.0,96,88,78,30.18,30.00,4,0,9,0.04
2013-12-29,36.3,30.2,22.5,33.0,28.7,21.0,97,94,82,30.00,29.64,3,0,7,0.33
2013-12-30,33.3,17.0,5.0,32.0,13.3,2.0,97,85,72,30.22,29.68,12,4,18,0.04
2013-12-31,21.6,12.6,3.3,17.0,7.3,1.0,89,79,63,30.21,30.00,15,2,20,0.00
2014-1-1,17.9,13.1,9.1,12.0,8.9,5.0,91,83,71,30.40,30.21,5,1,9,0.00
2014-1-2,10.3,5.3,-5.8,8.0,2.4,-9.0,89,87,83,30.35,29.95,9,2,11,0.00